Dallas, Texas
Traffic Map
Current Weather Conditions
Dallas, Texas
Overcast Drizzle
Overcast
13°
Feels Like: 13°
Wind Chill: 13° Ceiling: 2000
Heat Index: 13° Visibility: 6mi
Dew Point: Wind: 17mph
Humidity: 80% Direction: 40° (NE)
Pressure: 30.08in Gusts: 22mph
Raw Report DataKDAL 281753Z 04015G19KT 6SM -DZ BKN020 OVC024 13/09 A3008 RMK AO2 RAE10DZB53 SLP182 P0000 60000 T01280094 10128 20117 51009
Traffic Incident Summary
Active as of:
Severity:
Category:
InformationThere was an issue retrieving the traffic information for this location. Please try a different location or try again shortly.
Advertisements
Track Severe Weather on mobile